Pinnacle, Arkansas
Current Conditions -  °F | °C
As of 4:53 AM on Wednesday 26 Nov 2014 (Local Time) from KLIT Reporting Station
Light Snow Light Snow  
Wind Chill: 32°   Ceiling: Unl
Heat Index: 32°   Visibility: 9mi
Dew Point: 28°   Wind: 0mph
Humidity: 85%   Direction: NA
Pressure: 30.1"   Gusts: NA
Location:  34.8869°N, 92.5324°W
Report Text: KLIT 261053Z 00000KT 9SM -SN CLR 00/M02 A3010 RMK AO2 SNB44 SLP197 P0000 T00001022
Loading
Personal Weather Stations






























Interactive Weather Map New forecast layout! Learn more

10-Day Weather Forecast

Advertisements
Track Severe Weather on mobile